Aviation Digital Data Service (ADDS)

Output produced by TAFs form (0704 UTC 21 October 2014)
found at http://aviationweather.gov/adds/tafs/
 
KHOB 210535Z 2106/2206 13007KT P6SM SCT050 BKN110 
     FM211200 14007KT 4SM -SHRA BR SCT015 BKN030